sensor_id;sensor_type;location;lat;lon;timestamp;pressure;altitude;pressure_sealevel;temperature;humidity
5062;BME280;2351;50.812;12.872;2023-05-10T00:01:29;97306.44;;;11.58;56.82
5062;BME280;2351;50.812;12.872;2023-05-10T00:04:01;97308.84;;;11.51;57.05
5062;BME280;2351;50.812;12.872;2023-05-10T00:06:33;97302.41;;;11.54;56.74
5062;BME280;2351;50.812;12.872;2023-05-10T00:09:06;97294.78;;;11.51;56.83
5062;BME280;2351;50.812;12.872;2023-05-10T00:11:37;97301.19;;;11.48;56.86
5062;BME280;2351;50.812;12.872;2023-05-10T00:14:09;97294.38;;;11.45;57.16
5062;BME280;2351;50.812;12.872;2023-05-10T00:16:41;97289.69;;;11.39;57.28
5062;BME280;2351;50.812;12.872;2023-05-10T00:19:12;97285.84;;;11.34;57.23
5062;BME280;2351;50.812;12.872;2023-05-10T00:21:44;97287.31;;;11.28;57.51
5062;BME280;2351;50.812;12.872;2023-05-10T00:24:17;97288.59;;;11.24;57.76
5062;BME280;2351;50.812;12.872;2023-05-10T00:26:49;97290.63;;;11.30;57.14
5062;BME280;2351;50.812;12.872;2023-05-10T00:29:20;97283.66;;;11.29;57.02
5062;BME280;2351;50.812;12.872;2023-05-10T00:31:52;97282.91;;;11.19;57.16
5062;BME280;2351;50.812;12.872;2023-05-10T00:34:24;97285.03;;;11.15;57.44
5062;BME280;2351;50.812;12.872;2023-05-10T00:36:56;97286.31;;;11.11;57.51
5062;BME280;2351;50.812;12.872;2023-05-10T00:39:29;97284.72;;;11.00;58.75
5062;BME280;2351;50.812;12.872;2023-05-10T00:42:00;97273.63;;;10.96;59.15
5062;BME280;2351;50.812;12.872;2023-05-10T00:44:32;97270.28;;;10.94;59.32
5062;BME280;2351;50.812;12.872;2023-05-10T00:47:04;97270.59;;;10.91;58.94
5062;BME280;2351;50.812;12.872;2023-05-10T00:49:36;97270.66;;;10.81;60.64
5062;BME280;2351;50.812;12.872;2023-05-10T00:52:08;97262.94;;;10.88;60.09
5062;BME280;2351;50.812;12.872;2023-05-10T00:54:41;97262.63;;;10.91;59.76
5062;BME280;2351;50.812;12.872;2023-05-10T00:57:13;97266.50;;;10.79;60.54
5062;BME280;2351;50.812;12.872;2023-05-10T00:59:45;97262.88;;;10.80;60.44
5062;BME280;2351;50.812;12.872;2023-05-10T01:02:17;97257.19;;;10.75;61.06
5062;BME280;2351;50.812;12.872;2023-05-10T01:04:49;97248.59;;;10.91;59.64
5062;BME280;2351;50.812;12.872;2023-05-10T01:07:22;97251.97;;;10.83;60.59
5062;BME280;2351;50.812;12.872;2023-05-10T01:09:55;97261.50;;;10.76;60.94
5062;BME280;2351;50.812;12.872;2023-05-10T01:12:27;97253.69;;;10.74;61.08
5062;BME280;2351;50.812;12.872;2023-05-10T01:15:00;97256.91;;;10.78;60.74
5062;BME280;2351;50.812;12.872;2023-05-10T01:17:32;97252.03;;;10.73;60.93
5062;BME280;2351;50.812;12.872;2023-05-10T01:20:05;97259.00;;;10.74;60.76
5062;BME280;2351;50.812;12.872;2023-05-10T01:23:10;97255.72;;;10.62;61.80
5062;BME280;2351;50.812;12.872;2023-05-10T01:29:25;97252.72;;;10.57;61.68
5062;BME280;2351;50.812;12.872;2023-05-10T01:32:16;97254.28;;;10.50;61.74
5062;BME280;2351;50.812;12.872;2023-05-10T01:34:59;97253.44;;;10.49;61.54
5062;BME280;2351;50.812;12.872;2023-05-10T01:37:39;97244.28;;;10.44;62.16
5062;BME280;2351;50.812;12.872;2023-05-10T01:40:17;97242.09;;;10.39;62.26
5062;BME280;2351;50.812;12.872;2023-05-10T01:42:56;97242.34;;;10.36;62.03
5062;BME280;2351;50.812;12.872;2023-05-10T01:45:35;97245.00;;;10.36;62.07
5062;BME280;2351;50.812;12.872;2023-05-10T01:48:11;97243.38;;;10.25;63.10
5062;BME280;2351;50.812;12.872;2023-05-10T01:50:43;97246.31;;;10.22;62.76
5062;BME280;2351;50.812;12.872;2023-05-10T01:53:19;97247.06;;;10.14;63.40
5062;BME280;2351;50.812;12.872;2023-05-10T01:55:53;97259.16;;;10.17;63.23
5062;BME280;2351;50.812;12.872;2023-05-10T01:58:29;97268.75;;;10.18;63.10
5062;BME280;2351;50.812;12.872;2023-05-10T02:01:03;97277.13;;;10.13;63.52
5062;BME280;2351;50.812;12.872;2023-05-10T02:03:38;97274.94;;;10.08;62.93
5062;BME280;2351;50.812;12.872;2023-05-10T02:06:12;97274.69;;;10.02;62.94
5062;BME280;2351;50.812;12.872;2023-05-10T02:08:47;97269.13;;;9.95;63.26
5062;BME280;2351;50.812;12.872;2023-05-10T02:11:21;97278.03;;;9.94;63.22
5062;BME280;2351;50.812;12.872;2023-05-10T02:13:53;97282.78;;;9.90;63.22
5062;BME280;2351;50.812;12.872;2023-05-10T02:16:27;97284.44;;;9.91;63.12
5062;BME280;2351;50.812;12.872;2023-05-10T02:19:03;97278.75;;;9.86;63.82
5062;BME280;2351;50.812;12.872;2023-05-10T02:21:35;97277.50;;;9.90;63.39
5062;BME280;2351;50.812;12.872;2023-05-10T02:24:09;97271.22;;;9.91;63.30
5062;BME280;2351;50.812;12.872;2023-05-10T02:26:42;97272.50;;;9.87;63.70
5062;BME280;2351;50.812;12.872;2023-05-10T02:29:16;97272.50;;;9.87;63.33
5062;BME280;2351;50.812;12.872;2023-05-10T02:31:51;97269.31;;;9.84;64.57
5062;BME280;2351;50.812;12.872;2023-05-10T02:34:26;97274.44;;;9.85;64.13
5062;BME280;2351;50.812;12.872;2023-05-10T02:36:59;97264.56;;;9.87;64.20
5062;BME280;2351;50.812;12.872;2023-05-10T02:39:33;97256.09;;;9.84;64.17
5062;BME280;2351;50.812;12.872;2023-05-10T02:42:05;97257.88;;;9.83;63.97
5062;BME280;2351;50.812;12.872;2023-05-10T02:44:38;97254.72;;;9.79;64.00
5062;BME280;2351;50.812;12.872;2023-05-10T02:47:12;97263.91;;;9.75;63.91
5062;BME280;2351;50.812;12.872;2023-05-10T02:49:45;97263.34;;;9.72;64.18
5062;BME280;2351;50.812;12.872;2023-05-10T02:52:21;97263.94;;;9.65;63.63
5062;BME280;2351;50.812;12.872;2023-05-10T02:54:56;97256.88;;;9.56;63.75
5062;BME280;2351;50.812;12.872;2023-05-10T02:57:32;97258.41;;;9.49;64.13
5062;BME280;2351;50.812;12.872;2023-05-10T03:00:06;97266.19;;;9.41;64.14
5062;BME280;2351;50.812;12.872;2023-05-10T03:02:38;97268.28;;;9.37;63.90
5062;BME280;2351;50.812;12.872;2023-05-10T03:05:12;97279.00;;;9.36;64.40
5062;BME280;2351;50.812;12.872;2023-05-10T03:07:44;97280.97;;;9.33;63.89
5062;BME280;2351;50.812;12.872;2023-05-10T03:10:17;97277.34;;;9.34;64.22
5062;BME280;2351;50.812;12.872;2023-05-10T03:13:00;97288.44;;;9.38;64.61
5062;BME280;2351;50.812;12.872;2023-05-10T03:15:42;97290.66;;;9.43;64.62
5062;BME280;2351;50.812;12.872;2023-05-10T03:18:20;97288.59;;;9.37;64.67
5062;BME280;2351;50.812;12.872;2023-05-10T03:20:57;97296.94;;;9.32;65.01
5062;BME280;2351;50.812;12.872;2023-05-10T03:23:34;97293.75;;;9.28;64.97
5062;BME280;2351;50.812;12.872;2023-05-10T03:26:07;97294.28;;;9.22;65.46
5062;BME280;2351;50.812;12.872;2023-05-10T03:28:40;97302.63;;;9.17;65.32
5062;BME280;2351;50.812;12.872;2023-05-10T03:31:12;97300.00;;;9.17;65.88
5062;BME280;2351;50.812;12.872;2023-05-10T03:33:47;97288.19;;;9.12;65.74
5062;BME280;2351;50.812;12.872;2023-05-10T03:36:20;97277.63;;;9.12;66.18
5062;BME280;2351;50.812;12.872;2023-05-10T03:38:52;97281.94;;;9.13;66.48
5062;BME280;2351;50.812;12.872;2023-05-10T03:41:24;97276.50;;;9.14;66.65
5062;BME280;2351;50.812;12.872;2023-05-10T03:43:56;97269.56;;;9.13;67.06
5062;BME280;2351;50.812;12.872;2023-05-10T03:46:28;97268.44;;;9.16;68.75
5062;BME280;2351;50.812;12.872;2023-05-10T03:48:59;97258.19;;;9.23;70.12
5062;BME280;2351;50.812;12.872;2023-05-10T03:51:32;97267.47;;;9.37;69.85
5062;BME280;2351;50.812;12.872;2023-05-10T03:54:04;97252.84;;;9.52;68.58
5062;BME280;2351;50.812;12.872;2023-05-10T03:56:36;97251.88;;;9.53;69.71
5062;BME280;2351;50.812;12.872;2023-05-10T03:59:08;97251.44;;;9.58;69.50
5062;BME280;2351;50.812;12.872;2023-05-10T04:01:39;97265.50;;;9.58;69.56
5062;BME280;2351;50.812;12.872;2023-05-10T04:04:11;97254.94;;;9.58;69.50
5062;BME280;2351;50.812;12.872;2023-05-10T04:06:44;97261.56;;;9.62;69.38
5062;BME280;2351;50.812;12.872;2023-05-10T04:09:16;97254.50;;;9.63;69.53
5062;BME280;2351;50.812;12.872;2023-05-10T04:11:48;97263.63;;;9.78;68.22
5062;BME280;2351;50.812;12.872;2023-05-10T04:14:19;97258.44;;;9.87;67.47
5062;BME280;2351;50.812;12.872;2023-05-10T04:16:51;97259.28;;;9.87;68.18
5062;BME280;2351;50.812;12.872;2023-05-10T04:19:23;97264.72;;;9.86;68.66
5062;BME280;2351;50.812;12.872;2023-05-10T04:21:56;97269.72;;;9.89;68.40
5062;BME280;2351;50.812;12.872;2023-05-10T04:24:28;97261.91;;;9.87;68.61
5062;BME280;2351;50.812;12.872;2023-05-10T04:26:59;97260.53;;;9.93;68.53
5062;BME280;2351;50.812;12.872;2023-05-10T04:29:31;97257.25;;;10.09;68.27
5062;BME280;2351;50.812;12.872;2023-05-10T04:32:03;97244.59;;;10.13;68.45
5062;BME280;2351;50.812;12.872;2023-05-10T04:34:35;97243.84;;;10.20;68.33
5062;BME280;2351;50.812;12.872;2023-05-10T04:37:08;97241.97;;;10.31;68.21
5062;BME280;2351;50.812;12.872;2023-05-10T04:39:40;97245.00;;;10.36;68.29
5062;BME280;2351;50.812;12.872;2023-05-10T04:42:11;97239.16;;;10.42;68.03
5062;BME280;2351;50.812;12.872;2023-05-10T04:44:45;97246.06;;;10.53;67.56
5062;BME280;2351;50.812;12.872;2023-05-10T04:47:16;97235.25;;;10.64;67.84
5062;BME280;2351;50.812;12.872;2023-05-10T04:49:48;97240.34;;;10.76;67.55
5062;BME280;2351;50.812;12.872;2023-05-10T04:52:21;97247.22;;;10.87;66.50
5062;BME280;2351;50.812;12.872;2023-05-10T04:54:53;97240.78;;;10.89;66.51
5062;BME280;2351;50.812;12.872;2023-05-10T04:57:25;97237.38;;;10.97;66.73
5062;BME280;2351;50.812;12.872;2023-05-10T04:59:56;97233.22;;;11.12;66.78
5062;BME280;2351;50.812;12.872;2023-05-10T05:02:28;97241.66;;;11.34;65.78
5062;BME280;2351;50.812;12.872;2023-05-10T05:05:01;97235.28;;;11.45;66.04
5062;BME280;2351;50.812;12.872;2023-05-10T05:07:34;97243.47;;;11.60;66.14
5062;BME280;2351;50.812;12.872;2023-05-10T05:10:07;97245.56;;;11.74;65.08
5062;BME280;2351;50.812;12.872;2023-05-10T05:12:39;97244.00;;;11.90;63.87
5062;BME280;2351;50.812;12.872;2023-05-10T05:15:10;97234.56;;;11.96;64.28
5062;BME280;2351;50.812;12.872;2023-05-10T05:17:42;97247.78;;;12.14;64.36
5062;BME280;2351;50.812;12.872;2023-05-10T05:20:14;97245.34;;;12.29;63.69
5062;BME280;2351;50.812;12.872;2023-05-10T05:22:47;97238.88;;;12.23;61.70
5062;BME280;2351;50.812;12.872;2023-05-10T05:25:19;97247.03;;;12.38;62.08
5062;BME280;2351;50.812;12.872;2023-05-10T05:27:51;97244.94;;;12.58;60.43
5062;BME280;2351;50.812;12.872;2023-05-10T05:30:22;97249.63;;;12.73;61.63
5062;BME280;2351;50.812;12.872;2023-05-10T05:32:54;97248.66;;;13.15;61.99
5062;BME280;2351;50.812;12.872;2023-05-10T05:35:26;97245.56;;;14.09;58.61
5062;BME280;2351;50.812;12.872;2023-05-10T05:38:00;97240.50;;;14.71;54.27
5062;BME280;2351;50.812;12.872;2023-05-10T05:40:31;97248.84;;;14.91;55.81
5062;BME280;2351;50.812;12.872;2023-05-10T05:43:03;97246.25;;;14.83;55.95
5062;BME280;2351;50.812;12.872;2023-05-10T05:45:35;97238.75;;;15.10;55.92
5062;BME280;2351;50.812;12.872;2023-05-10T05:48:06;97246.97;;;15.23;54.54
5062;BME280;2351;50.812;12.872;2023-05-10T05:50:38;97246.78;;;15.01;55.13
5062;BME280;2351;50.812;12.872;2023-05-10T05:53:11;97245.03;;;14.62;53.39
5062;BME280;2351;50.812;12.872;2023-05-10T05:55:51;97246.09;;;14.05;54.51
5062;BME280;2351;50.812;12.872;2023-05-10T05:58:23;97247.09;;;14.04;55.84
5062;BME280;2351;50.812;12.872;2023-05-10T06:00:55;97253.00;;;14.30;56.09
5062;BME280;2351;50.812;12.872;2023-05-10T06:03:27;97264.91;;;14.43;56.24
5062;BME280;2351;50.812;12.872;2023-05-10T06:05:58;97245.69;;;14.64;56.26
5062;BME280;2351;50.812;12.872;2023-05-10T06:08:31;97245.50;;;14.66;55.15
5062;BME280;2351;50.812;12.872;2023-05-10T06:11:04;97267.63;;;14.26;53.99
5062;BME280;2351;50.812;12.872;2023-05-10T06:13:35;97258.59;;;13.88;54.57
5062;BME280;2351;50.812;12.872;2023-05-10T06:16:07;97266.09;;;13.76;55.31
5062;BME280;2351;50.812;12.872;2023-05-10T06:18:39;97259.31;;;13.65;55.89
5062;BME280;2351;50.812;12.872;2023-05-10T06:21:11;97272.94;;;13.62;55.93
5062;BME280;2351;50.812;12.872;2023-05-10T06:23:44;97267.66;;;13.53;56.00
5062;BME280;2351;50.812;12.872;2023-05-10T06:26:15;97270.63;;;13.50;56.18
5062;BME280;2351;50.812;12.872;2023-05-10T06:28:47;97262.16;;;13.47;55.97
5062;BME280;2351;50.812;12.872;2023-05-10T06:31:19;97271.63;;;13.33;57.08
5062;BME280;2351;50.812;12.872;2023-05-10T06:33:51;97270.78;;;13.32;57.44
5062;BME280;2351;50.812;12.872;2023-05-10T06:36:23;97266.09;;;13.26;58.12
5062;BME280;2351;50.812;12.872;2023-05-10T06:38:57;97271.63;;;13.33;58.15
5062;BME280;2351;50.812;12.872;2023-05-10T06:41:29;97267.28;;;13.40;58.49
5062;BME280;2351;50.812;12.872;2023-05-10T06:44:01;97275.44;;;13.47;58.92
5062;BME280;2351;50.812;12.872;2023-05-10T06:46:33;97275.63;;;13.53;57.41
5062;BME280;2351;50.812;12.872;2023-05-10T06:49:05;97269.63;;;13.51;57.29
5062;BME280;2351;50.812;12.872;2023-05-10T06:51:37;97273.28;;;13.50;57.66
5062;BME280;2351;50.812;12.872;2023-05-10T06:54:10;97274.25;;;13.58;57.76
5062;BME280;2351;50.812;12.872;2023-05-10T06:56:42;97277.25;;;13.63;57.82
5062;BME280;2351;50.812;12.872;2023-05-10T06:59:13;97274.28;;;13.66;58.51
5062;BME280;2351;50.812;12.872;2023-05-10T07:01:46;97279.06;;;13.79;58.70
5062;BME280;2351;50.812;12.872;2023-05-10T07:04:18;97282.88;;;14.01;58.42
5062;BME280;2351;50.812;12.872;2023-05-10T07:06:50;97284.16;;;14.05;58.44
5062;BME280;2351;50.812;12.872;2023-05-10T07:09:23;97291.47;;;14.11;58.22
5062;BME280;2351;50.812;12.872;2023-05-10T07:11:55;97284.47;;;14.19;57.96
5062;BME280;2351;50.812;12.872;2023-05-10T07:14:27;97286.59;;;14.31;57.93
5062;BME280;2351;50.812;12.872;2023-05-10T07:16:59;97290.72;;;14.42;57.80
5062;BME280;2351;50.812;12.872;2023-05-10T07:19:31;97288.53;;;14.46;57.44
5062;BME280;2351;50.812;12.872;2023-05-10T07:22:03;97294.97;;;14.60;57.94
5062;BME280;2351;50.812;12.872;2023-05-10T07:24:36;97288.88;;;14.83;58.37
5062;BME280;2351;50.812;12.872;2023-05-10T07:27:08;97283.97;;;15.18;58.89
5062;BME280;2351;50.812;12.872;2023-05-10T07:29:40;97284.25;;;15.46;58.83
5062;BME280;2351;50.812;12.872;2023-05-10T07:32:12;97292.19;;;15.55;57.81
5062;BME280;2351;50.812;12.872;2023-05-10T07:34:44;97291.28;;;15.62;57.59
5062;BME280;2351;50.812;12.872;2023-05-10T07:37:16;97289.72;;;15.68;57.32
5062;BME280;2351;50.812;12.872;2023-05-10T07:39:49;97293.53;;;15.74;56.57
5062;BME280;2351;50.812;12.872;2023-05-10T07:42:21;97298.88;;;15.74;55.92
5062;BME280;2351;50.812;12.872;2023-05-10T07:44:52;97302.25;;;15.68;55.66
5062;BME280;2351;50.812;12.872;2023-05-10T07:47:24;97299.22;;;15.71;55.33
5062;BME280;2351;50.812;12.872;2023-05-10T07:49:56;97304.72;;;15.69;55.10
5062;BME280;2351;50.812;12.872;2023-05-10T07:52:28;97315.28;;;15.62;55.02
5062;BME280;2351;50.812;12.872;2023-05-10T07:55:01;97308.78;;;15.65;54.87
5062;BME280;2351;50.812;12.872;2023-05-10T07:57:33;97308.66;;;15.58;54.88
5062;BME280;2351;50.812;12.872;2023-05-10T08:00:05;97316.13;;;15.63;53.93
5062;BME280;2351;50.812;12.872;2023-05-10T08:02:37;97320.06;;;15.52;54.10
5062;BME280;2351;50.812;12.872;2023-05-10T08:05:09;97316.75;;;15.50;53.98
5062;BME280;2351;50.812;12.872;2023-05-10T08:07:41;97332.63;;;15.43;54.18
5062;BME280;2351;50.812;12.872;2023-05-10T08:10:17;97332.78;;;15.42;53.67
5062;BME280;2351;50.812;12.872;2023-05-10T08:12:49;97335.53;;;15.33;53.79
5062;BME280;2351;50.812;12.872;2023-05-10T08:15:21;97345.53;;;15.31;54.01
5062;BME280;2351;50.812;12.872;2023-05-10T08:17:53;97342.47;;;15.19;53.63
5062;BME280;2351;50.812;12.872;2023-05-10T08:20:24;97342.84;;;15.08;54.71
5062;BME280;2351;50.812;12.872;2023-05-10T08:22:56;97349.59;;;14.96;54.68
5062;BME280;2351;50.812;12.872;2023-05-10T08:25:29;97350.94;;;14.91;55.12
5062;BME280;2351;50.812;12.872;2023-05-10T08:28:01;97350.31;;;14.81;55.31
5062;BME280;2351;50.812;12.872;2023-05-10T08:30:33;97356.34;;;14.75;55.76
5062;BME280;2351;50.812;12.872;2023-05-10T08:33:04;97355.84;;;14.71;55.80
5062;BME280;2351;50.812;12.872;2023-05-10T08:35:36;97364.16;;;14.68;55.96
5062;BME280;2351;50.812;12.872;2023-05-10T08:38:08;97369.16;;;14.71;56.15
5062;BME280;2351;50.812;12.872;2023-05-10T08:40:42;97368.50;;;14.61;56.44
5062;BME280;2351;50.812;12.872;2023-05-10T08:43:14;97371.19;;;14.53;56.84
5062;BME280;2351;50.812;12.872;2023-05-10T08:45:46;97370.38;;;14.44;57.17
5062;BME280;2351;50.812;12.872;2023-05-10T08:48:22;97373.06;;;14.36;57.34
5062;BME280;2351;50.812;12.872;2023-05-10T08:50:57;97378.91;;;14.31;57.65
5062;BME280;2351;50.812;12.872;2023-05-10T08:53:31;97382.75;;;14.28;57.81
5062;BME280;2351;50.812;12.872;2023-05-10T08:56:07;97381.09;;;14.27;58.41
5062;BME280;2351;50.812;12.872;2023-05-10T08:58:39;97389.59;;;14.23;58.76
5062;BME280;2351;50.812;12.872;2023-05-10T09:01:12;97389.91;;;14.20;59.31
5062;BME280;2351;50.812;12.872;2023-05-10T09:03:45;97384.59;;;14.20;59.47
5062;BME280;2351;50.812;12.872;2023-05-10T09:06:17;97389.91;;;14.20;59.67
5062;BME280;2351;50.812;12.872;2023-05-10T09:08:50;97394.06;;;14.22;60.27
5062;BME280;2351;50.812;12.872;2023-05-10T09:11:25;97396.38;;;14.25;60.64
5062;BME280;2351;50.812;12.872;2023-05-10T09:13:59;97401.19;;;14.30;60.79
5062;BME280;2351;50.812;12.872;2023-05-10T09:16:31;97407.53;;;14.21;60.62
5062;BME280;2351;50.812;12.872;2023-05-10T09:19:03;97409.22;;;14.13;60.93
5062;BME280;2351;50.812;12.872;2023-05-10T09:21:35;97411.38;;;14.10;61.21
5062;BME280;2351;50.812;12.872;2023-05-10T09:24:08;97414.22;;;14.00;61.42
5062;BME280;2351;50.812;12.872;2023-05-10T09:26:47;97416.38;;;13.96;61.72
5062;BME280;2351;50.812;12.872;2023-05-10T09:29:19;97425.84;;;13.82;62.05
5062;BME280;2351;50.812;12.872;2023-05-10T09:31:52;97424.16;;;13.81;62.37
5062;BME280;2351;50.812;12.872;2023-05-10T09:34:31;97431.00;;;13.76;62.61
5062;BME280;2351;50.812;12.872;2023-05-10T09:37:05;97428.13;;;13.61;63.27
5062;BME280;2351;50.812;12.872;2023-05-10T09:39:38;97425.16;;;13.55;63.51
5062;BME280;2351;50.812;12.872;2023-05-10T09:42:13;97435.78;;;13.55;64.06
5062;BME280;2351;50.812;12.872;2023-05-10T09:44:49;97439.28;;;13.56;64.43
5062;BME280;2351;50.812;12.872;2023-05-10T09:47:21;97442.25;;;13.53;65.10
5062;BME280;2351;50.812;12.872;2023-05-10T09:49:53;97449.00;;;13.39;65.37
5062;BME280;2351;50.812;12.872;2023-05-10T09:52:26;97456.28;;;13.29;65.89
5062;BME280;2351;50.812;12.872;2023-05-10T09:54:58;97458.25;;;13.18;66.52
5062;BME280;2351;50.812;12.872;2023-05-10T09:57:31;97449.59;;;13.08;67.04
5062;BME280;2351;50.812;12.872;2023-05-10T10:00:04;97457.38;;;13.01;68.04
5062;BME280;2351;50.812;12.872;2023-05-10T10:02:36;97456.81;;;12.89;68.49
5062;BME280;2351;50.812;12.872;2023-05-10T10:05:08;97452.81;;;12.85;68.45
5062;BME280;2351;50.812;12.872;2023-05-10T10:07:40;97455.59;;;12.75;69.49
5062;BME280;2351;50.812;12.872;2023-05-10T10:10:12;97448.41;;;12.68;70.04
5062;BME280;2351;50.812;12.872;2023-05-10T10:12:45;97458.34;;;12.65;71.45
5062;BME280;2351;50.812;12.872;2023-05-10T10:15:17;97456.81;;;12.63;72.91
5062;BME280;2351;50.812;12.872;2023-05-10T10:17:51;97460.44;;;12.54;74.04
5062;BME280;2351;50.812;12.872;2023-05-10T10:20:23;97452.25;;;12.47;74.67
5062;BME280;2351;50.812;12.872;2023-05-10T10:22:55;97454.91;;;12.47;74.89
5062;BME280;2351;50.812;12.872;2023-05-10T10:25:27;97454.75;;;12.48;76.78
5062;BME280;2351;50.812;12.872;2023-05-10T10:28:11;97461.25;;;12.54;76.81
5062;BME280;2351;50.812;12.872;2023-05-10T10:30:48;97461.63;;;12.59;77.59
5062;BME280;2351;50.812;12.872;2023-05-10T10:33:40;97456.50;;;12.66;77.46
5062;BME280;2351;50.812;12.872;2023-05-10T10:36:18;97451.72;;;12.70;77.72
5062;BME280;2351;50.812;12.872;2023-05-10T10:39:00;97451.72;;;12.70;78.69
5062;BME280;2351;50.812;12.872;2023-05-10T10:41:34;97456.38;;;12.68;78.32
5062;BME280;2351;50.812;12.872;2023-05-10T10:44:33;97458.03;;;12.69;79.00
5062;BME280;2351;50.812;12.872;2023-05-10T10:47:10;97458.03;;;12.69;78.73
5062;BME280;2351;50.812;12.872;2023-05-10T10:50:03;97463.00;;;12.72;78.63
5062;BME280;2351;50.812;12.872;2023-05-10T10:52:36;97459.38;;;12.73;78.56
5062;BME280;2351;50.812;12.872;2023-05-10T10:55:09;97458.91;;;12.77;78.58
5062;BME280;2351;50.812;12.872;2023-05-10T10:57:46;97460.78;;;12.85;78.00
5062;BME280;2351;50.812;12.872;2023-05-10T11:00:25;97460.91;;;12.84;78.09
5062;BME280;2351;50.812;12.872;2023-05-10T11:02:59;97463.56;;;12.84;77.38
5062;BME280;2351;50.812;12.872;2023-05-10T11:05:40;97471.72;;;12.82;77.33
5062;BME280;2351;50.812;12.872;2023-05-10T11:08:15;97469.38;;;12.79;77.69
5062;BME280;2351;50.812;12.872;2023-05-10T11:10:52;97467.22;;;12.83;77.00
5062;BME280;2351;50.812;12.872;2023-05-10T11:13:28;97471.72;;;12.82;77.19
5062;BME280;2351;50.812;12.872;2023-05-10T11:16:17;97470.53;;;12.85;77.30
5062;BME280;2351;50.812;12.872;2023-05-10T11:18:59;97472.22;;;12.86;77.42
5062;BME280;2351;50.812;12.872;2023-05-10T11:21:33;97476.06;;;12.91;76.82
5062;BME280;2351;50.812;12.872;2023-05-10T11:24:13;97481.91;;;12.95;76.39
5062;BME280;2351;50.812;12.872;2023-05-10T11:26:45;97484.19;;;12.90;76.51
5062;BME280;2351;50.812;12.872;2023-05-10T11:29:17;97491.13;;;12.83;77.08
5062;BME280;2351;50.812;12.872;2023-05-10T11:31:51;97490.44;;;12.80;77.40
5062;BME280;2351;50.812;12.872;2023-05-10T11:34:23;97494.94;;;12.80;77.69
5062;BME280;2351;50.812;12.872;2023-05-10T11:36:56;97496.41;;;12.74;78.23
5062;BME280;2351;50.812;12.872;2023-05-10T11:39:32;97498.56;;;12.79;78.89
5062;BME280;2351;50.812;12.872;2023-05-10T11:42:03;97498.50;;;12.71;79.38
5062;BME280;2351;50.812;12.872;2023-05-10T11:44:35;97504.00;;;12.69;79.99
5062;BME280;2351;50.812;12.872;2023-05-10T11:47:09;97504.97;;;12.68;80.68
5062;BME280;2351;50.812;12.872;2023-05-10T11:49:43;97496.72;;;12.71;81.23
5062;BME280;2351;50.812;12.872;2023-05-10T11:52:15;97497.06;;;12.76;81.69
5062;BME280;2351;50.812;12.872;2023-05-10T11:54:51;97494.63;;;12.83;82.72
5062;BME280;2351;50.812;12.872;2023-05-10T11:57:26;97496.28;;;12.84;83.02
5062;BME280;2351;50.812;12.872;2023-05-10T11:59:58;97498.78;;;12.86;83.49
5062;BME280;2351;50.812;12.872;2023-05-10T12:02:31;97506.28;;;12.90;83.95
5062;BME280;2351;50.812;12.872;2023-05-10T12:05:04;97496.78;;;12.88;85.04
5062;BME280;2351;50.812;12.872;2023-05-10T12:07:36;97505.59;;;12.88;85.18
5062;BME280;2351;50.812;12.872;2023-05-10T12:10:09;97509.50;;;12.76;85.10
5062;BME280;2351;50.812;12.872;2023-05-10T12:12:44;97509.81;;;12.73;85.55
5062;BME280;2351;50.812;12.872;2023-05-10T12:15:18;97509.66;;;12.74;87.86
5062;BME280;2351;50.812;12.872;2023-05-10T12:17:51;97513.78;;;12.69;87.00
5062;BME280;2351;50.812;12.872;2023-05-10T12:20:27;97509.78;;;12.64;88.11
5062;BME280;2351;50.812;12.872;2023-05-10T12:22:58;97514.78;;;12.68;89.34
5062;BME280;2351;50.812;12.872;2023-05-10T12:25:33;97517.78;;;12.73;90.56
5062;BME280;2351;50.812;12.872;2023-05-10T12:28:07;97512.78;;;12.70;91.50
5062;BME280;2351;50.812;12.872;2023-05-10T12:30:39;97523.06;;;12.64;91.83
5062;BME280;2351;50.812;12.872;2023-05-10T12:33:13;97521.38;;;12.63;92.00
5062;BME280;2351;50.812;12.872;2023-05-10T12:35:48;97525.22;;;12.69;94.91
5062;BME280;2351;50.812;12.872;2023-05-10T12:38:25;97523.06;;;12.64;94.63
5062;BME280;2351;50.812;12.872;2023-05-10T12:41:00;97522.06;;;12.65;94.33
5062;BME280;2351;50.812;12.872;2023-05-10T12:43:33;97523.56;;;12.68;95.06
5062;BME280;2351;50.812;12.872;2023-05-10T12:46:06;97524.41;;;12.69;96.45
5062;BME280;2351;50.812;12.872;2023-05-10T12:48:40;97523.25;;;12.71;96.74
5062;BME280;2351;50.812;12.872;2023-05-10T12:54:36;97532.91;;;12.80;97.30
5062;BME280;2351;50.812;12.872;2023-05-10T12:57:08;97528.97;;;12.85;98.35
5062;BME280;2351;50.812;12.872;2023-05-10T12:59:40;97526.50;;;12.91;97.68
5062;BME280;2351;50.812;12.872;2023-05-10T13:02:12;97524.41;;;12.95;98.79
5062;BME280;2351;50.812;12.872;2023-05-10T13:04:46;97531.22;;;12.98;99.30
5062;BME280;2351;50.812;12.872;2023-05-10T13:07:18;97523.28;;;13.06;100.00
5062;BME280;2351;50.812;12.872;2023-05-10T13:09:49;97523.28;;;13.06;100.00
5062;BME280;2351;50.812;12.872;2023-05-10T13:12:21;97527.63;;;13.15;100.00
5062;BME280;2351;50.812;12.872;2023-05-10T13:14:53;97522.72;;;13.29;100.00
5062;BME280;2351;50.812;12.872;2023-05-10T13:17:25;97519.34;;;13.18;100.00
5062;BME280;2351;50.812;12.872;2023-05-10T13:19:58;97524.34;;;13.21;100.00
5062;BME280;2351;50.812;12.872;2023-05-10T13:22:30;97518.03;;;13.22;100.00
5062;BME280;2351;50.812;12.872;2023-05-10T13:25:02;97516.38;;;13.21;100.00
5062;BME280;2351;50.812;12.872;2023-05-10T13:27:33;97511.78;;;13.32;100.00
5062;BME280;2351;50.812;12.872;2023-05-10T13:30:06;97514.22;;;13.51;100.00
5062;BME280;2351;50.812;12.872;2023-05-10T13:32:38;97510.19;;;13.47;100.00
5062;BME280;2351;50.812;12.872;2023-05-10T13:35:11;97511.38;;;13.53;100.00
5062;BME280;2351;50.812;12.872;2023-05-10T13:37:43;97513.53;;;13.58;100.00
5062;BME280;2351;50.812;12.872;2023-05-10T13:40:15;97512.75;;;13.65;100.00
5062;BME280;2351;50.812;12.872;2023-05-10T13:42:46;97521.41;;;13.76;100.00
5062;BME280;2351;50.812;12.872;2023-05-10T13:45:18;97517.63;;;13.95;100.00
5062;BME280;2351;50.812;12.872;2023-05-10T13:47:50;97511.97;;;14.06;100.00
5062;BME280;2351;50.812;12.872;2023-05-10T13:50:23;97508.16;;;14.17;100.00
5062;BME280;2351;50.812;12.872;2023-05-10T13:52:56;97506.84;;;14.29;100.00